createdAt,value
2022-11-29T00:01:16.516Z,5.90
2022-11-29T00:03:43.418Z,5.90
2022-11-29T00:06:14.847Z,5.90
2022-11-29T00:08:41.997Z,5.90
2022-11-29T00:11:12.800Z,5.90
2022-11-29T00:13:39.827Z,5.80
2022-11-29T00:16:10.678Z,5.90
2022-11-29T00:18:37.591Z,5.80
2022-11-29T00:21:10.178Z,5.80
2022-11-29T00:23:36.967Z,5.80
2022-11-29T00:26:07.100Z,5.80
2022-11-29T00:28:34.476Z,5.70
2022-11-29T00:31:01.448Z,5.70
2022-11-29T00:33:28.325Z,5.60
2022-11-29T00:35:55.131Z,5.70
2022-11-29T00:38:21.902Z,5.70
2022-11-29T00:40:52.765Z,5.70
2022-11-29T00:43:19.571Z,5.70
2022-11-29T00:45:46.365Z,5.70
2022-11-29T00:48:13.256Z,5.60
2022-11-29T00:50:40.098Z,5.50
2022-11-29T00:53:06.870Z,5.50
2022-11-29T00:55:33.645Z,5.50
2022-11-29T00:58:00.458Z,5.40
2022-11-29T01:00:27.253Z,5.40
2022-11-29T01:02:54.508Z,5.40
2022-11-29T01:05:21.311Z,5.40
2022-11-29T01:07:48.207Z,5.50
2022-11-29T01:10:15.013Z,5.50
2022-11-29T01:12:41.777Z,5.40
2022-11-29T01:15:09.256Z,5.40
2022-11-29T01:17:36.565Z,5.30
2022-11-29T01:20:04.422Z,5.30
2022-11-29T01:22:31.190Z,5.20
2022-11-29T01:24:58.028Z,5.20
2022-11-29T01:27:24.949Z,5.20
2022-11-29T01:29:51.718Z,5.20
2022-11-29T01:32:18.558Z,5.20
2022-11-29T01:34:45.528Z,5.20
2022-11-29T01:37:12.464Z,5.10
2022-11-29T01:39:39.445Z,5.10
2022-11-29T01:42:06.217Z,5.10
2022-11-29T01:44:33.061Z,5.00
2022-11-29T01:46:59.837Z,5.00
2022-11-29T01:49:42.920Z,5.00
2022-11-29T01:52:23.982Z,5.00
2022-11-29T01:54:52.530Z,5.00
2022-11-29T01:57:19.341Z,5.00
2022-11-29T01:59:50.791Z,5.00
2022-11-29T02:02:42.376Z,4.90
2022-11-29T02:05:09.541Z,4.90
2022-11-29T02:07:36.693Z,4.90
2022-11-29T02:10:03.882Z,4.90
2022-11-29T02:12:39.617Z,4.80
2022-11-29T02:15:28.044Z,4.90
2022-11-29T02:18:12.710Z,4.90
2022-11-29T02:21:09.264Z,4.80
2022-11-29T02:24:13.753Z,4.70
2022-11-29T02:26:59.164Z,4.70
2022-11-29T02:29:56.614Z,4.80
2022-11-29T02:32:42.157Z,4.80
2022-11-29T02:35:32.089Z,4.70
2022-11-29T02:38:21.628Z,4.70
2022-11-29T02:40:54.065Z,4.70
2022-11-29T02:43:39.015Z,4.60
2022-11-29T02:46:33.155Z,4.60
2022-11-29T02:49:22.384Z,4.50
2022-11-29T02:51:54.241Z,4.50
2022-11-29T02:54:26.205Z,4.50
2022-11-29T02:56:58.972Z,4.50
2022-11-29T03:00:08.129Z,4.60
2022-11-29T03:02:49.375Z,4.60
2022-11-29T03:05:39.667Z,4.50
2022-11-29T03:08:27.364Z,4.50
2022-11-29T03:11:10.986Z,4.40
2022-11-29T03:14:11.873Z,4.40
2022-11-29T03:16:43.819Z,4.40
2022-11-29T03:19:32.523Z,4.40
2022-11-29T03:22:13.177Z,4.30
2022-11-29T03:24:50.957Z,4.30
2022-11-29T03:27:23.162Z,4.20
2022-11-29T03:30:00.724Z,4.30
2022-11-29T03:32:51.833Z,4.30
2022-11-29T03:35:36.496Z,4.20
2022-11-29T03:38:28.364Z,4.10
2022-11-29T03:41:13.246Z,4.20
2022-11-29T03:43:53.396Z,4.10
2022-11-29T03:46:37.429Z,4.10
2022-11-29T03:49:24.550Z,4.10
2022-11-29T03:51:57.348Z,4.00
2022-11-29T03:54:56.125Z,4.00
2022-11-29T03:57:31.118Z,4.00
2022-11-29T04:00:02.062Z,4.00
2022-11-29T04:02:35.065Z,4.00
2022-11-29T04:05:16.558Z,4.00
2022-11-29T04:07:58.347Z,3.90
2022-11-29T04:10:37.332Z,3.90
2022-11-29T04:13:37.001Z,3.90
2022-11-29T04:16:51.793Z,4.00
2022-11-29T04:19:27.206Z,3.90
2022-11-29T04:21:56.897Z,3.90
2022-11-29T04:24:29.370Z,3.80
2022-11-29T04:27:33.109Z,3.80
2022-11-29T04:30:22.763Z,3.80
2022-11-29T04:33:13.659Z,3.70
2022-11-29T04:35:49.557Z,3.70
2022-11-29T04:38:40.656Z,3.70
2022-11-29T04:41:36.468Z,3.70
2022-11-29T04:44:21.935Z,3.80
2022-11-29T04:46:55.569Z,3.70
2022-11-29T04:49:44.982Z,3.80
2022-11-29T04:52:23.828Z,3.70
2022-11-29T04:55:26.200Z,3.70
2022-11-29T04:58:14.164Z,3.60
2022-11-29T05:01:06.909Z,3.60
2022-11-29T05:03:45.716Z,3.70
2022-11-29T05:06:19.334Z,3.60
2022-11-29T05:08:55.055Z,3.50
2022-11-29T05:11:26.879Z,3.50
2022-11-29T05:14:15.725Z,3.50
2022-11-29T05:17:13.245Z,3.50
2022-11-29T05:19:48.574Z,3.60
2022-11-29T05:22:44.325Z,3.50
2022-11-29T05:25:15.617Z,3.50
2022-11-29T05:28:10.266Z,3.50
2022-11-29T05:31:12.586Z,3.40
2022-11-29T05:34:06.381Z,3.40
2022-11-29T05:36:42.187Z,3.40
2022-11-29T05:39:37.053Z,3.40
2022-11-29T05:42:31.668Z,3.40
2022-11-29T05:45:08.559Z,3.40
2022-11-29T05:47:40.288Z,3.40
2022-11-29T05:50:12.597Z,3.40
2022-11-29T05:52:58.984Z,3.40
2022-11-29T05:55:49.998Z,3.40
2022-11-29T05:58:38.473Z,3.40
2022-11-29T06:01:43.107Z,3.30
2022-11-29T06:04:20.279Z,3.30
2022-11-29T06:06:48.260Z,3.30
2022-11-29T06:09:30.924Z,3.30
2022-11-29T06:12:10.417Z,3.30
2022-11-29T06:14:40.080Z,3.30
2022-11-29T06:17:39.395Z,3.30
2022-11-29T06:20:11.111Z,3.30
2022-11-29T06:23:13.439Z,3.30
2022-11-29T06:26:04.114Z,3.40
2022-11-29T06:29:07.902Z,3.40
2022-11-29T06:31:44.009Z,3.40
2022-11-29T06:34:11.138Z,3.40
2022-11-29T06:37:05.566Z,3.40
2022-11-29T06:39:32.759Z,3.40
2022-11-29T06:41:59.527Z,3.30
2022-11-29T06:44:26.620Z,3.30
2022-11-29T06:47:06.808Z,3.30
2022-11-29T06:49:42.164Z,3.40
2022-11-29T06:52:17.823Z,3.40
2022-11-29T06:54:53.893Z,3.50
2022-11-29T06:57:46.401Z,3.50
2022-11-29T07:00:22.770Z,3.60
2022-11-29T07:02:52.643Z,3.60
2022-11-29T07:05:35.099Z,3.70
2022-11-29T07:08:07.271Z,3.70
2022-11-29T07:10:37.092Z,3.70
2022-11-29T07:13:04.325Z,3.80
2022-11-29T07:15:31.792Z,3.80
2022-11-29T07:18:15.585Z,3.80
2022-11-29T07:20:49.740Z,3.70
2022-11-29T07:23:36.800Z,3.70
2022-11-29T07:26:19.980Z,3.60
2022-11-29T07:28:54.397Z,3.60
2022-11-29T07:31:42.988Z,3.50
2022-11-29T07:34:47.836Z,3.50
2022-11-29T07:37:14.829Z,3.40
2022-11-29T07:39:50.646Z,3.40
2022-11-29T07:42:37.388Z,3.40
2022-11-29T07:45:21.701Z,3.40
2022-11-29T07:47:49.597Z,3.40
2022-11-29T07:50:16.569Z,3.30
2022-11-29T07:52:43.553Z,3.30
2022-11-29T07:55:18.450Z,3.30
2022-11-29T07:57:46.169Z,3.30
2022-11-29T08:00:13.976Z,3.30
2022-11-29T08:02:40.941Z,3.30
2022-11-29T08:05:08.678Z,3.40
2022-11-29T08:07:36.472Z,3.40
2022-11-29T08:10:04.316Z,3.50
2022-11-29T08:12:31.323Z,3.60
2022-11-29T08:14:58.204Z,3.70
2022-11-29T08:17:25.965Z,3.70
2022-11-29T08:19:52.935Z,3.80
2022-11-29T08:22:19.785Z,3.90
2022-11-29T08:24:46.888Z,4.00
2022-11-29T08:27:13.869Z,4.10
2022-11-29T08:29:40.659Z,4.20
2022-11-29T08:32:09.063Z,4.30
2022-11-29T08:34:35.860Z,4.40
2022-11-29T08:37:02.632Z,4.50
2022-11-29T08:39:32.002Z,4.60
2022-11-29T08:41:58.838Z,4.70
2022-11-29T08:44:26.202Z,4.80
2022-11-29T08:47:11.817Z,4.90
2022-11-29T08:49:59.558Z,5.00
2022-11-29T08:52:44.755Z,5.00
2022-11-29T08:55:11.625Z,5.10
2022-11-29T08:57:40.584Z,5.20
2022-11-29T09:00:09.425Z,5.30
2022-11-29T09:02:36.587Z,5.40
2022-11-29T09:05:04.951Z,5.50
2022-11-29T09:07:31.792Z,5.60
2022-11-29T09:09:58.761Z,5.70
2022-11-29T09:12:25.567Z,5.70
2022-11-29T09:14:52.371Z,5.80
2022-11-29T09:17:19.205Z,5.80
2022-11-29T09:19:47.304Z,5.80
2022-11-29T09:22:14.138Z,5.80
2022-11-29T09:24:40.997Z,5.50
2022-11-29T09:27:07.865Z,5.50
2022-11-29T09:29:34.677Z,5.50
2022-11-29T09:32:01.995Z,5.70
2022-11-29T09:34:28.783Z,5.90
2022-11-29T09:36:55.626Z,5.90
2022-11-29T09:39:22.403Z,5.90
2022-11-29T09:42:14.910Z,6.10
2022-11-29T09:45:05.167Z,6.30
2022-11-29T09:47:33.137Z,6.40
2022-11-29T09:50:31.997Z,6.20
2022-11-29T09:53:22.913Z,6.10
2022-11-29T09:55:52.785Z,6.20
2022-11-29T09:59:30.622Z,6.30
2022-11-29T10:05:41.388Z,6.60
2022-11-29T10:11:59.993Z,6.90
2022-11-29T10:19:00.125Z,7.20
2022-11-29T10:25:19.369Z,7.20
2022-11-29T10:27:52.140Z,7.70
2022-11-29T10:30:19.026Z,7.90
2022-11-29T10:32:57.333Z,8.10
2022-11-29T10:35:24.220Z,8.20
2022-11-29T10:38:22.590Z,8.20
2022-11-29T10:40:39.593Z,8.30
2022-11-29T10:43:06.416Z,8.40
2022-11-29T10:45:45.995Z,8.40
2022-11-29T10:48:23.632Z,8.40
2022-11-29T10:50:51.270Z,8.40
2022-11-29T10:53:20.134Z,8.50
2022-11-29T10:55:52.090Z,8.50
2022-11-29T10:58:24.809Z,8.60
2022-11-29T11:01:07.974Z,8.40
2022-11-29T11:03:39.361Z,8.40
2022-11-29T11:08:16.507Z,8.30
2022-11-29T11:12:18.109Z,8.10
2022-11-29T11:14:47.211Z,8.20
2022-11-29T11:17:26.197Z,8.30
2022-11-29T11:20:05.787Z,8.50
2022-11-29T11:22:33.048Z,8.80
2022-11-29T11:25:07.932Z,9.10
2022-11-29T11:27:39.722Z,9.30
2022-11-29T11:30:22.862Z,9.40
2022-11-29T11:33:09.506Z,9.30
2022-11-29T11:35:37.360Z,9.20
2022-11-29T11:38:04.275Z,9.20
2022-11-29T11:40:31.461Z,9.10
2022-11-29T11:42:59.028Z,9.10
2022-11-29T11:45:32.986Z,9.10
2022-11-29T11:48:12.837Z,9.10
2022-11-29T11:50:44.761Z,9.10
2022-11-29T11:53:44.458Z,9.10
2022-11-29T11:58:49.775Z,9.20
2022-11-29T12:04:57.981Z,9.20
2022-11-29T12:08:08.091Z,9.20
2022-11-29T12:10:35.418Z,9.30
2022-11-29T12:13:02.198Z,9.60
2022-11-29T12:15:34.112Z,9.60
2022-11-29T12:18:12.370Z,9.60
2022-11-29T12:20:57.325Z,9.60
2022-11-29T12:23:27.388Z,9.50
2022-11-29T12:26:04.350Z,9.40
2022-11-29T12:28:35.523Z,9.30
2022-11-29T12:31:38.768Z,9.40
2022-11-29T12:34:43.602Z,9.60
2022-11-29T12:37:41.347Z,9.60
2022-11-29T12:40:28.295Z,9.80
2022-11-29T12:43:13.147Z,10.00
2022-11-29T12:45:55.821Z,10.10
2022-11-29T12:48:31.492Z,10.10
2022-11-29T12:51:13.214Z,10.00
2022-11-29T12:53:45.794Z,10.00
2022-11-29T12:56:24.136Z,9.80
2022-11-29T12:58:54.206Z,9.70
2022-11-29T13:01:42.611Z,9.70
2022-11-29T13:04:22.464Z,9.60
2022-11-29T13:06:56.339Z,9.60
2022-11-29T13:09:41.994Z,9.60
2022-11-29T13:12:33.079Z,9.70
2022-11-29T13:15:07.218Z,9.60
2022-11-29T13:18:09.581Z,9.60
2022-11-29T13:20:53.089Z,9.50
2022-11-29T13:23:46.000Z,9.40
2022-11-29T13:26:19.737Z,9.50
2022-11-29T13:28:46.719Z,9.50
2022-11-29T13:31:23.363Z,9.60
2022-11-29T13:34:07.701Z,9.60
2022-11-29T13:36:52.699Z,9.70
2022-11-29T13:40:01.488Z,9.70
2022-11-29T13:42:35.463Z,9.70
2022-11-29T13:45:13.358Z,9.80
2022-11-29T13:48:42.818Z,9.80
2022-11-29T13:51:29.962Z,9.90
2022-11-29T13:54:45.159Z,9.90
2022-11-29T14:01:01.874Z,9.90
2022-11-29T14:07:33.329Z,9.90
2022-11-29T14:12:36.702Z,10.20
2022-11-29T14:15:33.295Z,10.10
2022-11-29T14:18:01.214Z,10.00
2022-11-29T14:20:28.718Z,10.00
2022-11-29T14:23:04.649Z,10.00
2022-11-29T14:25:51.073Z,10.00
2022-11-29T14:28:18.683Z,9.90
2022-11-29T14:30:46.722Z,9.90
2022-11-29T14:33:34.498Z,9.90
2022-11-29T14:36:23.238Z,9.90
2022-11-29T14:38:52.817Z,9.80
2022-11-29T14:41:22.921Z,9.70
2022-11-29T14:43:49.700Z,9.60
2022-11-29T14:46:16.599Z,9.60
2022-11-29T14:48:57.034Z,9.50
2022-11-29T14:51:25.190Z,9.60
2022-11-29T14:54:12.256Z,9.60
2022-11-29T14:56:43.335Z,9.50
2022-11-29T14:59:49.481Z,9.50
2022-11-29T15:02:35.884Z,9.40
2022-11-29T15:05:13.561Z,9.30
2022-11-29T15:07:47.007Z,9.30
2022-11-29T15:10:18.173Z,9.10
2022-11-29T15:12:44.998Z,9.00
2022-11-29T15:15:32.953Z,8.90
2022-11-29T15:20:01.541Z,8.80
2022-11-29T15:22:51.295Z,8.60
2022-11-29T15:25:32.994Z,8.50
2022-11-29T15:28:01.429Z,8.40
2022-11-29T15:30:41.305Z,8.40
2022-11-29T15:33:18.845Z,8.30
2022-11-29T15:35:50.415Z,8.30
2022-11-29T15:38:21.026Z,8.20
2022-11-29T15:40:55.245Z,8.20
2022-11-29T15:43:30.664Z,8.10
2022-11-29T15:45:58.200Z,8.00
2022-11-29T15:48:26.765Z,7.90
2022-11-29T15:51:00.204Z,7.90
2022-11-29T15:53:39.077Z,7.90
2022-11-29T15:56:20.484Z,7.80
2022-11-29T15:58:47.340Z,7.70
2022-11-29T16:01:20.676Z,7.80
2022-11-29T16:03:49.014Z,7.70
2022-11-29T16:06:33.200Z,7.60
2022-11-29T16:09:00.102Z,7.60
2022-11-29T16:11:27.878Z,7.60
2022-11-29T16:14:19.693Z,7.50
2022-11-29T16:16:47.658Z,7.50
2022-11-29T16:19:38.008Z,7.40
2022-11-29T16:22:11.920Z,7.40
2022-11-29T16:24:40.055Z,7.30
2022-11-29T16:27:07.001Z,7.30
2022-11-29T16:29:38.267Z,7.30
2022-11-29T16:32:31.549Z,7.30
2022-11-29T16:35:18.892Z,7.10
2022-11-29T16:37:45.875Z,7.00
2022-11-29T16:40:26.587Z,7.00
2022-11-29T16:43:24.093Z,6.90
2022-11-29T16:46:30.372Z,6.90
2022-11-29T16:48:58.333Z,6.80
2022-11-29T16:51:39.858Z,6.80
2022-11-29T16:54:27.433Z,6.70
2022-11-29T16:56:55.718Z,6.60
2022-11-29T16:59:28.046Z,6.60
2022-11-29T17:01:56.396Z,6.60
2022-11-29T17:04:24.840Z,6.60
2022-11-29T17:06:55.409Z,6.60
2022-11-29T17:09:43.630Z,6.60
2022-11-29T17:16:05.327Z,6.50
2022-11-29T17:21:59.772Z,6.60
2022-11-29T17:27:38.436Z,6.40
2022-11-29T17:30:36.318Z,6.30
2022-11-29T17:36:42.825Z,6.40
2022-11-29T17:43:13.279Z,6.40
2022-11-29T17:49:31.658Z,6.40
2022-11-29T17:55:29.384Z,6.50
2022-11-29T18:01:36.155Z,6.40
2022-11-29T18:07:55.235Z,6.50
2022-11-29T18:13:27.394Z,6.50
2022-11-29T18:16:17.697Z,6.30
2022-11-29T18:21:08.264Z,6.30
2022-11-29T18:25:38.708Z,6.40
2022-11-29T18:28:08.013Z,6.40
2022-11-29T18:30:48.865Z,6.40
2022-11-29T18:33:15.801Z,6.40
2022-11-29T18:35:42.629Z,6.50
2022-11-29T18:38:16.912Z,6.50
2022-11-29T18:40:45.727Z,6.50
2022-11-29T18:43:13.188Z,6.50
2022-11-29T18:45:40.075Z,6.50
2022-11-29T18:48:06.989Z,6.50
2022-11-29T18:50:33.749Z,6.40
2022-11-29T18:53:00.596Z,6.40
2022-11-29T18:55:27.470Z,6.40
2022-11-29T18:57:54.407Z,6.40
2022-11-29T19:00:21.672Z,6.40
2022-11-29T19:02:48.567Z,6.40
2022-11-29T19:05:21.591Z,6.30
2022-11-29T19:07:48.505Z,6.40
2022-11-29T19:10:15.343Z,6.40
2022-11-29T19:12:42.132Z,6.40
2022-11-29T19:15:09.688Z,6.40
2022-11-29T19:17:41.687Z,6.40
2022-11-29T19:20:10.802Z,6.40
2022-11-29T19:22:37.563Z,6.50
2022-11-29T19:25:04.856Z,6.50
2022-11-29T19:27:31.927Z,6.50
2022-11-29T19:29:58.745Z,6.50
2022-11-29T19:32:25.505Z,6.50
2022-11-29T19:34:52.740Z,6.50
2022-11-29T19:37:19.556Z,6.40
2022-11-29T19:39:46.542Z,6.50
2022-11-29T19:42:13.553Z,6.40
2022-11-29T19:45:14.711Z,6.40
2022-11-29T19:47:27.420Z,6.40
2022-11-29T19:50:42.849Z,6.30
2022-11-29T19:53:10.393Z,6.40
2022-11-29T19:55:43.899Z,6.40
2022-11-29T19:58:11.052Z,6.40
2022-11-29T20:00:37.916Z,6.40
2022-11-29T20:03:04.745Z,6.50
2022-11-29T20:05:37.549Z,6.50
2022-11-29T20:09:00.263Z,6.50
2022-11-29T20:14:56.733Z,6.40
2022-11-29T20:17:39.652Z,6.40
2022-11-29T20:22:56.709Z,6.50
2022-11-29T20:25:23.564Z,6.50
2022-11-29T20:32:00.605Z,6.50
2022-11-29T20:38:32.779Z,6.60
2022-11-29T20:43:20.208Z,6.60
2022-11-29T20:48:54.825Z,6.60
2022-11-29T20:55:32.686Z,6.60
2022-11-29T21:01:51.081Z,6.70
2022-11-29T21:07:57.558Z,6.70
2022-11-29T21:14:05.912Z,6.80
2022-11-29T21:20:36.433Z,6.80
2022-11-29T21:26:54.857Z,6.80
2022-11-29T21:33:01.397Z,6.80
2022-11-29T21:39:09.534Z,6.70
2022-11-29T21:45:39.985Z,6.80
2022-11-29T21:48:27.872Z,6.80
2022-11-29T21:54:46.463Z,6.80
2022-11-29T22:00:53.281Z,6.80
2022-11-29T22:06:59.692Z,6.80
2022-11-29T22:13:30.184Z,6.80
2022-11-29T22:19:48.682Z,6.80
2022-11-29T22:25:55.031Z,6.70
2022-11-29T22:32:02.326Z,6.80
2022-11-29T22:38:32.946Z,6.80
2022-11-29T22:44:51.269Z,6.60
2022-11-29T22:51:07.460Z,6.70
2022-11-29T22:56:37.295Z,6.60
2022-11-29T22:59:06.018Z,6.60
2022-11-29T23:05:32.257Z,6.50
2022-11-29T23:11:39.030Z,6.40
2022-11-29T23:18:09.480Z,6.40
2022-11-29T23:24:27.853Z,6.30
2022-11-29T23:32:25.011Z,6.30
2022-11-29T23:36:03.428Z,6.40
2022-11-29T23:42:15.508Z,6.30
2022-11-29T23:48:45.978Z,6.20
2022-11-29T23:51:27.640Z,6.40
2022-11-29T23:57:05.590Z,6.40
